createdAt,value
2022-10-11T00:04:15.293Z,4
2022-10-11T00:08:57.572Z,4
2022-10-11T00:13:39.792Z,4
2022-10-11T00:18:22.101Z,4
2022-10-11T00:23:04.413Z,4
2022-10-11T00:27:46.620Z,4
2022-10-11T00:32:28.934Z,4
2022-10-11T00:37:11.246Z,4
2022-10-11T00:41:53.459Z,9
2022-10-11T00:46:34.772Z,4
2022-10-11T00:51:17.080Z,4
2022-10-11T00:55:59.498Z,4
2022-10-11T01:00:41.601Z,4
2022-10-11T01:05:23.928Z,4
2022-10-11T01:10:06.225Z,4
2022-10-11T01:14:48.444Z,9
2022-10-11T01:19:30.755Z,9
2022-10-11T01:24:13.110Z,4
2022-10-11T01:28:55.292Z,4
2022-10-11T01:38:19.903Z,4
2022-10-11T01:43:02.162Z,4
2022-10-11T01:47:43.465Z,4
2022-10-11T01:52:25.729Z,4
2022-10-11T01:57:08.045Z,9
2022-10-11T02:01:50.256Z,4
2022-10-11T02:06:32.572Z,9
2022-10-11T02:11:14.877Z,9
2022-10-11T02:15:57.088Z,4
2022-10-11T02:20:39.401Z,9
2022-10-11T02:25:21.715Z,9
2022-10-11T02:30:03.922Z,9
2022-10-11T02:34:46.274Z,9
2022-10-11T02:39:28.543Z,9
2022-10-11T02:44:10.835Z,9
2022-10-11T02:48:52.074Z,9
2022-10-11T02:53:34.379Z,9
2022-10-11T02:58:16.691Z,9
2022-10-11T03:02:58.906Z,9
2022-10-11T03:07:41.216Z,9
2022-10-11T03:12:23.537Z,9
2022-10-11T03:17:05.740Z,9
2022-10-11T03:21:48.051Z,9
2022-10-11T03:26:30.369Z,9
2022-10-11T03:31:12.584Z,9
2022-10-11T03:35:54.921Z,9
2022-10-11T03:40:37.207Z,9
2022-10-11T03:45:19.407Z,4
2022-10-11T03:50:00.723Z,12
2022-10-11T03:54:43.049Z,12
2022-10-11T03:59:25.347Z,12
2022-10-11T04:04:07.557Z,12
2022-10-11T04:08:49.869Z,12
2022-10-11T04:13:32.217Z,12
2022-10-11T04:18:14.478Z,12
2022-10-11T04:22:56.758Z,12
2022-10-11T04:27:39.113Z,12
2022-10-11T04:32:21.268Z,12
2022-10-11T04:37:03.615Z,12
2022-10-11T04:41:45.885Z,12
2022-10-11T04:46:28.063Z,12
2022-10-11T04:51:09.378Z,12
2022-10-11T04:55:51.727Z,12
2022-10-11T05:00:33.991Z,12
2022-10-11T05:05:16.254Z,15
2022-10-11T05:09:58.516Z,20
2022-10-11T05:14:40.835Z,36
2022-10-11T05:19:23.046Z,83
2022-10-11T05:24:05.356Z,164
2022-10-11T05:28:47.664Z,327
2022-10-11T05:33:29.891Z,395
2022-10-11T05:38:12.220Z,628
2022-10-11T05:42:54.505Z,723
2022-10-11T05:47:36.729Z,860
2022-10-11T05:52:18.023Z,1361
2022-10-11T05:57:00.338Z,1685
2022-10-11T06:01:42.651Z,1935
2022-10-11T06:06:24.882Z,1647
2022-10-11T06:11:07.206Z,1366
2022-10-11T06:15:49.562Z,1098
2022-10-11T06:20:31.693Z,1675
2022-10-11T06:25:14.015Z,2108
2022-10-11T06:29:56.318Z,2794
2022-10-11T06:34:38.530Z,3198
2022-10-11T06:39:20.855Z,3059
2022-10-11T06:44:03.151Z,2802
2022-10-11T06:48:45.511Z,4010
2022-10-11T06:53:26.672Z,2983
2022-10-11T06:58:09.058Z,2291
2022-10-11T07:02:51.198Z,2067
2022-10-11T07:07:33.510Z,2164
2022-10-11T07:12:15.823Z,2715
2022-10-11T07:16:58.269Z,2862
2022-10-11T07:21:40.342Z,3377
2022-10-11T07:26:22.658Z,4117
2022-10-11T07:31:05.048Z,5853
2022-10-11T07:35:47.182Z,5560
2022-10-11T07:40:29.501Z,7406
2022-10-11T07:45:11.945Z,8256
2022-10-11T07:49:54.158Z,10407
2022-10-11T07:54:35.437Z,8980
2022-10-11T07:59:17.780Z,9087
2022-10-11T08:03:59.998Z,9102
2022-10-11T08:08:42.317Z,10863
2022-10-11T08:13:24.619Z,9484
2022-10-11T08:18:06.823Z,8798
2022-10-11T08:22:48.999Z,9380
2022-10-11T08:27:31.420Z,10316
2022-10-11T08:32:13.655Z,10753
2022-10-11T08:36:55.981Z,10517
2022-10-11T08:41:38.290Z,11111
2022-10-11T08:46:20.419Z,14743
2022-10-11T08:51:02.674Z,21578
2022-10-11T08:55:43.978Z,23023
2022-10-11T09:00:26.289Z,25499
2022-10-11T09:05:08.520Z,22702
2022-10-11T09:09:50.820Z,49134
2022-10-11T09:14:33.129Z,25823
2022-10-11T09:19:15.339Z,28191
2022-10-11T09:23:57.651Z,27262
2022-10-11T09:28:39.982Z,22045
2022-10-11T09:33:22.183Z,22291
2022-10-11T09:38:04.512Z,18106
2022-10-11T09:42:46.796Z,19922
2022-10-11T09:47:29.020Z,29415
2022-10-11T09:52:11.320Z,25166
2022-10-11T09:56:52.632Z,35456
2022-10-11T10:01:34.845Z,24649
2022-10-11T10:06:17.263Z,26351
2022-10-11T10:10:59.470Z,32495
2022-10-11T10:15:41.681Z,54468
2022-10-11T10:20:23.992Z,29096
2022-10-11T10:25:06.307Z,27608
2022-10-11T10:29:48.521Z,22687
2022-10-11T10:34:30.836Z,20736
2022-10-11T10:39:13.140Z,15902
2022-10-11T10:43:55.353Z,10376
2022-10-11T10:48:37.668Z,11522
2022-10-11T10:53:20.011Z,19963
2022-10-11T10:58:01.317Z,25991
2022-10-11T11:02:43.529Z,15928
2022-10-11T11:07:25.853Z,10464
2022-10-11T11:12:08.133Z,12045
2022-10-11T11:16:50.360Z,13275
2022-10-11T11:21:32.670Z,12238
2022-10-11T11:26:14.044Z,11304
2022-10-11T11:30:56.363Z,9701
2022-10-11T11:35:38.484Z,21129
2022-10-11T11:40:20.794Z,21995
2022-10-11T11:45:03.146Z,16830
2022-10-11T11:49:45.329Z,17630
2022-10-11T11:54:27.656Z,18520
2022-10-11T11:59:10.081Z,16778
2022-10-11T12:03:52.155Z,19218
2022-10-11T12:08:34.467Z,17418
2022-10-11T12:13:16.778Z,54846
2022-10-11T12:17:58.993Z,30979
2022-10-11T12:22:41.311Z,28916
2022-10-11T12:27:22.618Z,32097
2022-10-11T12:32:04.834Z,13474
2022-10-11T12:36:47.141Z,15960
2022-10-11T12:41:29.551Z,7991
2022-10-11T12:46:11.700Z,6825
2022-10-11T12:50:53.980Z,6446
2022-10-11T12:55:36.291Z,6622
2022-10-11T13:00:18.501Z,7374
2022-10-11T13:05:00.814Z,8525
2022-10-11T13:09:43.120Z,9390
2022-10-11T13:14:25.342Z,12725
2022-10-11T13:19:07.644Z,14388
2022-10-11T13:23:49.963Z,17380
2022-10-11T13:28:31.269Z,16112
2022-10-11T13:33:13.482Z,19304
2022-10-11T13:37:55.790Z,20902
2022-10-11T13:42:38.101Z,21179
2022-10-11T13:47:20.339Z,39785
2022-10-11T13:52:02.624Z,26149
2022-10-11T13:56:44.961Z,31171
2022-10-11T14:01:27.149Z,35042
2022-10-11T14:06:09.463Z,21403
2022-10-11T14:10:51.773Z,17827
2022-10-11T14:15:33.985Z,20895
2022-10-11T14:20:16.302Z,19839
2022-10-11T14:24:58.609Z,15896
2022-10-11T14:29:39.822Z,14059
2022-10-11T14:34:22.178Z,11032
2022-10-11T14:39:04.455Z,9254
2022-10-11T14:43:46.655Z,9126
2022-10-11T14:48:28.970Z,10318
2022-10-11T14:53:11.276Z,10111
2022-10-11T14:57:53.492Z,8305
2022-10-11T15:02:35.815Z,7732
2022-10-11T15:07:18.117Z,7887
2022-10-11T15:12:00.328Z,7632
2022-10-11T15:16:42.639Z,7720
2022-10-11T15:21:24.957Z,7368
2022-10-11T15:26:07.263Z,6438
2022-10-11T15:30:48.497Z,5367
2022-10-11T15:35:30.786Z,4775
2022-10-11T15:40:13.107Z,4217
2022-10-11T15:44:55.332Z,3589
2022-10-11T15:49:37.620Z,2936
2022-10-11T15:54:19.970Z,2881
2022-10-11T15:59:02.183Z,2667
2022-10-11T16:03:44.456Z,2289
2022-10-11T16:08:26.816Z,1714
2022-10-11T16:13:08.982Z,1265
2022-10-11T16:17:51.327Z,813
2022-10-11T16:22:33.615Z,452
2022-10-11T16:27:15.815Z,360
2022-10-11T16:31:57.126Z,272
2022-10-11T16:36:39.510Z,203
2022-10-11T16:41:21.667Z,112
2022-10-11T16:46:04.058Z,78
2022-10-11T16:50:46.275Z,24
2022-10-11T16:55:28.584Z,18
2022-10-11T17:00:10.798Z,15
2022-10-11T17:04:53.143Z,9
2022-10-11T17:09:35.423Z,12
2022-10-11T17:14:17.657Z,12
2022-10-11T17:18:59.942Z,12
2022-10-11T17:23:42.262Z,12
2022-10-11T17:28:24.467Z,4
2022-10-11T17:33:05.780Z,4
2022-10-11T17:37:48.117Z,4
2022-10-11T17:42:30.317Z,4
2022-10-11T17:47:12.665Z,4
2022-10-11T17:51:54.924Z,4
2022-10-11T17:56:37.136Z,4
2022-10-11T18:01:19.444Z,9
2022-10-11T18:06:01.762Z,9
2022-10-11T18:10:43.968Z,4
2022-10-11T18:15:26.285Z,9
2022-10-11T18:20:08.595Z,9
2022-10-11T18:24:50.910Z,9
2022-10-11T18:29:33.145Z,9
2022-10-11T18:34:14.460Z,9
2022-10-11T18:38:56.734Z,9
2022-10-11T18:43:38.951Z,9
2022-10-11T18:48:21.266Z,9
2022-10-11T18:53:03.630Z,9
2022-10-11T18:57:45.795Z,9
2022-10-11T19:02:28.141Z,9
2022-10-11T19:07:10.408Z,9
2022-10-11T19:11:52.653Z,9
2022-10-11T19:16:34.993Z,9
2022-10-11T19:21:17.247Z,4
2022-10-11T19:25:59.597Z,4
2022-10-11T19:30:41.771Z,4
2022-10-11T19:35:23.098Z,4
2022-10-11T19:40:05.387Z,4
2022-10-11T19:44:47.599Z,4
2022-10-11T19:49:29.985Z,4
2022-10-11T19:54:12.224Z,4
2022-10-11T19:58:54.432Z,4
2022-10-11T20:03:36.752Z,4
2022-10-11T20:08:19.052Z,4
2022-10-11T20:13:01.408Z,4
2022-10-11T20:17:43.717Z,4
2022-10-11T20:22:26.046Z,4
2022-10-11T20:27:08.310Z,4
2022-10-11T20:31:50.526Z,4
2022-10-11T20:36:31.717Z,4
2022-10-11T20:41:14.075Z,4
2022-10-11T20:45:56.287Z,4
2022-10-11T20:50:38.540Z,4
2022-10-11T20:55:20.900Z,4
2022-10-11T21:00:03.170Z,4
2022-10-11T21:04:45.416Z,4
2022-10-11T21:09:27.753Z,4
2022-10-11T21:14:10.109Z,4
2022-10-11T21:18:52.233Z,4
2022-10-11T21:23:34.632Z,4
2022-10-11T21:28:16.833Z,9
2022-10-11T21:32:59.043Z,4
2022-10-11T21:37:40.352Z,4
2022-10-11T21:42:22.688Z,4
2022-10-11T21:47:04.992Z,4
2022-10-11T21:51:47.263Z,4
2022-10-11T21:56:29.525Z,4
2022-10-11T22:01:11.812Z,4
2022-10-11T22:05:54.122Z,4
2022-10-11T22:10:36.365Z,4
2022-10-11T22:15:18.646Z,4
2022-10-11T22:20:00.868Z,4
2022-10-11T22:24:43.177Z,4
2022-10-11T22:29:25.485Z,4
2022-10-11T22:34:07.715Z,4
2022-10-11T22:38:49.097Z,4
2022-10-11T22:43:31.314Z,4
2022-10-11T22:48:13.631Z,4
2022-10-11T22:52:55.838Z,4
2022-10-11T22:57:38.153Z,4
2022-10-11T23:02:20.480Z,4
2022-10-11T23:07:02.675Z,4
2022-10-11T23:11:44.987Z,4
2022-10-11T23:16:27.298Z,4
2022-10-11T23:21:09.558Z,4
2022-10-11T23:25:51.792Z,4
2022-10-11T23:30:34.091Z,4
2022-10-11T23:35:16.397Z,4
2022-10-11T23:39:57.704Z,9
2022-10-11T23:44:39.939Z,9
2022-10-11T23:49:22.224Z,9
2022-10-11T23:54:04.537Z,9
2022-10-11T23:58:46.751Z,9
